sensor_id;sensor_type;location;lat;lon;timestamp;pressure;altitude;pressure_sealevel;temperature;humidity
61472;BME280;47337;54.068;12.114;2023-04-01T00:01:54;99436.69;;;7.04;100.00
61472;BME280;47337;54.068;12.114;2023-04-01T00:04:19;99447.97;;;6.95;100.00
61472;BME280;47337;54.068;12.114;2023-04-01T00:06:47;99463.63;;;6.95;100.00
61472;BME280;47337;54.068;12.114;2023-04-01T00:09:16;99449.72;;;6.93;100.00
61472;BME280;47337;54.068;12.114;2023-04-01T00:11:43;99458.41;;;6.93;100.00
61472;BME280;47337;54.068;12.114;2023-04-01T00:14:11;99460.13;;;6.93;100.00
61472;BME280;47337;54.068;12.114;2023-04-01T00:16:38;99473.13;;;6.82;100.00
61472;BME280;47337;54.068;12.114;2023-04-01T00:19:06;99462.69;;;6.81;100.00
61472;BME280;47337;54.068;12.114;2023-04-01T00:21:32;99466.16;;;6.74;100.00
61472;BME280;47337;54.068;12.114;2023-04-01T00:24:00;99475.66;;;6.69;100.00
61472;BME280;47337;54.068;12.114;2023-04-01T00:26:26;99470.47;;;6.72;100.00
61472;BME280;47337;54.068;12.114;2023-04-01T00:28:51;99473.09;;;6.72;100.00
61472;BME280;47337;54.068;12.114;2023-04-01T00:31:20;99474.81;;;6.65;100.00
61472;BME280;47337;54.068;12.114;2023-04-01T00:33:47;99477.44;;;6.71;100.00
61472;BME280;47337;54.068;12.114;2023-04-01T00:36:18;99486.97;;;6.69;100.00
61472;BME280;47337;54.068;12.114;2023-04-01T00:38:46;99485.25;;;6.71;100.00
61472;BME280;47337;54.068;12.114;2023-04-01T00:41:17;99477.44;;;6.67;100.00
61472;BME280;47337;54.068;12.114;2023-04-01T00:43:44;99476.53;;;6.61;100.00
61472;BME280;47337;54.068;12.114;2023-04-01T00:46:13;99487.84;;;6.70;100.00
61472;BME280;47337;54.068;12.114;2023-04-01T00:48:42;99482.63;;;6.64;100.00
61472;BME280;47337;54.068;12.114;2023-04-01T00:51:18;99486.09;;;6.66;100.00
61472;BME280;47337;54.068;12.114;2023-04-01T00:53:48;99489.56;;;6.65;100.00
61472;BME280;47337;54.068;12.114;2023-04-01T00:56:30;99485.22;;;6.62;100.00
61472;BME280;47337;54.068;12.114;2023-04-01T00:59:04;99482.63;;;6.64;100.00
61472;BME280;47337;54.068;12.114;2023-04-01T01:01:36;99491.28;;;6.59;100.00
61472;BME280;47337;54.068;12.114;2023-04-01T01:04:03;99481.78;;;6.66;100.00
61472;BME280;47337;54.068;12.114;2023-04-01T01:11:44;99492.19;;;6.65;100.00
61472;BME280;47337;54.068;12.114;2023-04-01T01:16:48;99493.91;;;6.64;100.00
61472;BME280;47337;54.068;12.114;2023-04-01T01:19:52;99497.31;;;6.52;100.00
61472;BME280;47337;54.068;12.114;2023-04-01T01:25:16;99505.97;;;6.44;100.00
61472;BME280;47337;54.068;12.114;2023-04-01T01:31:30;99503.28;;;6.36;100.00
61472;BME280;47337;54.068;12.114;2023-04-01T01:36:48;99511.94;;;6.29;100.00
61472;BME280;47337;54.068;12.114;2023-04-01T01:39:19;99506.63;;;6.17;100.00
61472;BME280;47337;54.068;12.114;2023-04-01T01:41:46;99511.03;;;6.22;100.00
61472;BME280;47337;54.068;12.114;2023-04-01T01:44:15;99504.94;;;6.22;100.00
61472;BME280;47337;54.068;12.114;2023-04-01T01:46:42;99510.09;;;6.13;100.00
61472;BME280;47337;54.068;12.114;2023-04-01T01:49:16;99518.78;;;6.13;100.00
61472;BME280;47337;54.068;12.114;2023-04-01T01:51:43;99518.78;;;6.15;100.00
61472;BME280;47337;54.068;12.114;2023-04-01T01:54:14;99534.34;;;6.06;100.00
61472;BME280;47337;54.068;12.114;2023-04-01T01:56:41;99520.59;;;6.23;100.00
61472;BME280;47337;54.068;12.114;2023-04-01T01:59:10;99515.34;;;6.19;100.00
61472;BME280;47337;54.068;12.114;2023-04-01T02:01:39;99524.00;;;6.18;100.00
61472;BME280;47337;54.068;12.114;2023-04-01T02:04:08;99524.84;;;6.15;100.00
61472;BME280;47337;54.068;12.114;2023-04-01T02:06:37;99526.59;;;6.16;100.00
61472;BME280;47337;54.068;12.114;2023-04-01T02:09:09;99528.41;;;6.23;100.00
61472;BME280;47337;54.068;12.114;2023-04-01T02:11:40;99521.44;;;6.19;100.00
61472;BME280;47337;54.068;12.114;2023-04-01T02:14:21;99537.91;;;6.17;100.00
61472;BME280;47337;54.068;12.114;2023-04-01T02:17:15;99552.59;;;6.07;100.00
61472;BME280;47337;54.068;12.114;2023-04-01T02:19:53;99541.22;;;5.98;100.00
61472;BME280;47337;54.068;12.114;2023-04-01T02:22:24;99538.59;;;5.96;100.00
61472;BME280;47337;54.068;12.114;2023-04-01T02:24:52;99544.63;;;5.91;100.00
61472;BME280;47337;54.068;12.114;2023-04-01T02:27:21;99544.56;;;5.87;100.00
61472;BME280;47337;54.068;12.114;2023-04-01T02:29:47;99533.38;;;5.92;100.00
61472;BME280;47337;54.068;12.114;2023-04-01T02:32:16;99561.03;;;5.85;100.00
61472;BME280;47337;54.068;12.114;2023-04-01T02:34:43;99550.59;;;5.85;100.00
61472;BME280;47337;54.068;12.114;2023-04-01T02:37:08;99571.50;;;5.88;100.00
61472;BME280;47337;54.068;12.114;2023-04-01T02:39:35;99552.25;;;5.75;100.00
61472;BME280;47337;54.068;12.114;2023-04-01T02:42:00;99550.47;;;5.70;100.00
61472;BME280;47337;54.068;12.114;2023-04-01T02:44:26;99555.75;;;5.77;100.00
61472;BME280;47337;54.068;12.114;2023-04-01T02:46:51;99562.69;;;5.77;100.00
61472;BME280;47337;54.068;12.114;2023-04-01T02:49:18;99555.78;;;5.79;100.00
61472;BME280;47337;54.068;12.114;2023-04-01T02:51:43;99556.66;;;5.79;100.00
61472;BME280;47337;54.068;12.114;2023-04-01T02:54:11;99567.09;;;5.82;100.00
61472;BME280;47337;54.068;12.114;2023-04-01T02:56:39;99573.94;;;5.71;100.00
61472;BME280;47337;54.068;12.114;2023-04-01T02:59:04;99573.88;;;5.68;100.00
61472;BME280;47337;54.068;12.114;2023-04-01T03:01:30;99573.03;;;5.69;100.00
61472;BME280;47337;54.068;12.114;2023-04-01T03:03:55;99579.94;;;5.67;100.00
61472;BME280;47337;54.068;12.114;2023-04-01T03:06:21;99579.06;;;5.67;100.00
61472;BME280;47337;54.068;12.114;2023-04-01T03:08:46;99573.06;;;5.74;100.00
61472;BME280;47337;54.068;12.114;2023-04-01T03:11:12;99576.44;;;5.64;100.00
61472;BME280;47337;54.068;12.114;2023-04-01T03:13:38;99575.66;;;5.72;100.00
61472;BME280;47337;54.068;12.114;2023-04-01T03:16:04;99573.88;;;5.68;100.00
61472;BME280;47337;54.068;12.114;2023-04-01T03:18:30;99576.41;;;5.62;100.00
61472;BME280;47337;54.068;12.114;2023-04-01T03:20:55;99581.69;;;5.67;100.00
61472;BME280;47337;54.068;12.114;2023-04-01T03:23:20;99574.66;;;5.58;100.00
61472;BME280;47337;54.068;12.114;2023-04-01T03:25:47;99586.84;;;5.61;100.00
61472;BME280;47337;54.068;12.114;2023-04-01T03:28:12;99590.28;;;5.58;100.00
61472;BME280;47337;54.068;12.114;2023-04-01T03:30:38;99592.91;;;5.61;100.00
61472;BME280;47337;54.068;12.114;2023-04-01T03:33:05;99595.44;;;5.55;100.00
61472;BME280;47337;54.068;12.114;2023-04-01T03:35:31;99616.28;;;5.58;100.00
61472;BME280;47337;54.068;12.114;2023-04-01T03:38:01;99608.34;;;5.46;100.00
61472;BME280;47337;54.068;12.114;2023-04-01T03:40:26;99599.84;;;5.62;100.00
61472;BME280;47337;54.068;12.114;2023-04-01T03:42:52;99598.97;;;5.62;100.00
61472;BME280;47337;54.068;12.114;2023-04-01T03:45:20;99598.91;;;5.56;100.00
61472;BME280;47337;54.068;12.114;2023-04-01T03:47:47;99605.88;;;5.57;100.00
61472;BME280;47337;54.068;12.114;2023-04-01T03:50:13;99612.75;;;5.50;100.00
61472;BME280;47337;54.068;12.114;2023-04-01T03:52:38;99613.50;;;5.43;100.00
61472;BME280;47337;54.068;12.114;2023-04-01T03:55:07;99610.00;;;5.41;100.00
61472;BME280;47337;54.068;12.114;2023-04-01T04:00:00;99618.81;;;5.52;100.00
61472;BME280;47337;54.068;12.114;2023-04-01T04:02:26;99619.72;;;5.56;100.00
61472;BME280;47337;54.068;12.114;2023-04-01T04:04:51;99615.44;;;5.59;100.00
61472;BME280;47337;54.068;12.114;2023-04-01T04:07:19;99618.91;;;5.58;100.00
61472;BME280;47337;54.068;12.114;2023-04-01T04:09:44;99617.19;;;5.60;100.00
61472;BME280;47337;54.068;12.114;2023-04-01T04:12:12;99622.31;;;5.54;100.00
61472;BME280;47337;54.068;12.114;2023-04-01T04:14:38;99629.22;;;5.52;100.00
61472;BME280;47337;54.068;12.114;2023-04-01T04:17:03;99626.56;;;5.46;100.00
61472;BME280;47337;54.068;12.114;2023-04-01T04:19:32;99624.00;;;5.52;100.00
61472;BME280;47337;54.068;12.114;2023-04-01T04:21:59;99624.81;;;5.45;100.00
61472;BME280;47337;54.068;12.114;2023-04-01T04:24:26;99624.88;;;5.52;100.00
61472;BME280;47337;54.068;12.114;2023-04-01T04:26:52;99626.75;;;5.64;100.00
61472;BME280;47337;54.068;12.114;2023-04-01T04:29:18;99631.94;;;5.63;100.00
61472;BME280;47337;54.068;12.114;2023-04-01T04:31:43;99629.22;;;5.50;100.00
61472;BME280;47337;54.068;12.114;2023-04-01T04:34:11;99651.69;;;5.44;100.00
61472;BME280;47337;54.068;12.114;2023-04-01T04:36:36;99643.03;;;5.45;100.00
61472;BME280;47337;54.068;12.114;2023-04-01T04:39:02;99646.47;;;5.44;100.00
61472;BME280;47337;54.068;12.114;2023-04-01T04:41:29;99635.16;;;5.42;100.00
61472;BME280;47337;54.068;12.114;2023-04-01T04:43:56;99640.38;;;5.42;100.00
61472;BME280;47337;54.068;12.114;2023-04-01T04:46:23;99624.81;;;5.45;100.00
61472;BME280;47337;54.068;12.114;2023-04-01T04:48:51;99640.50;;;5.52;100.00
61472;BME280;47337;54.068;12.114;2023-04-01T04:51:20;99643.09;;;5.51;100.00
61472;BME280;47337;54.068;12.114;2023-04-01T04:53:46;99637.88;;;5.48;100.00
61472;BME280;47337;54.068;12.114;2023-04-01T04:56:12;99644.88;;;5.55;100.00
61472;BME280;47337;54.068;12.114;2023-04-01T04:58:38;99665.63;;;5.49;100.00
61472;BME280;47337;54.068;12.114;2023-04-01T05:01:11;99654.25;;;5.39;100.00
61472;BME280;47337;54.068;12.114;2023-04-01T05:03:37;99642.16;;;5.46;100.00
61472;BME280;47337;54.068;12.114;2023-04-01T05:06:04;99650.88;;;5.48;100.00
61472;BME280;47337;54.068;12.114;2023-04-01T05:08:30;99656.16;;;5.56;100.00
61472;BME280;47337;54.068;12.114;2023-04-01T05:10:58;99649.97;;;5.46;100.00
61472;BME280;47337;54.068;12.114;2023-04-01T05:13:24;99653.41;;;5.43;100.00
61472;BME280;47337;54.068;12.114;2023-04-01T05:15:50;99660.31;;;5.40;100.00
61472;BME280;47337;54.068;12.114;2023-04-01T05:18:18;99652.59;;;5.47;100.00
61472;BME280;47337;54.068;12.114;2023-04-01T05:20:50;99657.78;;;5.46;100.00
61472;BME280;47337;54.068;12.114;2023-04-01T05:23:16;99651.63;;;5.41;100.00
61472;BME280;47337;54.068;12.114;2023-04-01T05:25:42;99662.78;;;5.32;100.00
61472;BME280;47337;54.068;12.114;2023-04-01T05:28:08;99669.72;;;5.32;100.00
61472;BME280;47337;54.068;12.114;2023-04-01T05:30:33;99669.72;;;5.32;100.00
61472;BME280;47337;54.068;12.114;2023-04-01T05:32:59;99675.03;;;5.38;100.00
61472;BME280;47337;54.068;12.114;2023-04-01T05:35:25;99688.94;;;5.40;100.00
61472;BME280;47337;54.068;12.114;2023-04-01T05:37:50;99693.25;;;5.38;100.00
61472;BME280;47337;54.068;12.114;2023-04-01T05:42:41;99704.44;;;5.34;100.00
61472;BME280;47337;54.068;12.114;2023-04-01T05:45:07;99703.59;;;5.35;100.00
61472;BME280;47337;54.068;12.114;2023-04-01T05:47:34;99714.84;;;5.34;100.00
61472;BME280;47337;54.068;12.114;2023-04-01T05:50:00;99713.09;;;5.33;100.00
61472;BME280;47337;54.068;12.114;2023-04-01T05:52:25;99721.00;;;5.39;100.00
61472;BME280;47337;54.068;12.114;2023-04-01T05:54:51;99720.16;;;5.41;100.00
61472;BME280;47337;54.068;12.114;2023-04-01T05:57:16;99730.63;;;5.44;100.00
61472;BME280;47337;54.068;12.114;2023-04-01T05:59:42;99738.41;;;5.43;100.00
61472;BME280;47337;54.068;12.114;2023-04-01T06:02:09;99736.63;;;5.39;100.00
61472;BME280;47337;54.068;12.114;2023-04-01T06:04:39;99739.06;;;5.30;100.00
61472;BME280;47337;54.068;12.114;2023-04-01T06:07:14;99743.56;;;5.38;100.00
61472;BME280;47337;54.068;12.114;2023-04-01T06:09:40;99753.09;;;5.38;100.00
61472;BME280;47337;54.068;12.114;2023-04-01T06:25:42;99759.09;;;5.34;100.00
61472;BME280;47337;54.068;12.114;2023-04-01T06:37:10;99775.72;;;5.43;100.00
61472;BME280;47337;54.068;12.114;2023-04-01T06:40:00;99776.63;;;5.47;100.00
61472;BME280;47337;54.068;12.114;2023-04-01T06:50:56;99800.06;;;5.47;100.00
61472;BME280;47337;54.068;12.114;2023-04-01T06:56:05;99807.69;;;5.35;100.00
61472;BME280;47337;54.068;12.114;2023-04-01T06:59:04;99815.53;;;5.38;100.00
61472;BME280;47337;54.068;12.114;2023-04-01T07:02:11;99808.66;;;5.43;100.00
61472;BME280;47337;54.068;12.114;2023-04-01T07:04:37;99809.50;;;5.42;100.00
61472;BME280;47337;54.068;12.114;2023-04-01T07:07:24;99834.66;;;5.41;100.00
61472;BME280;47337;54.068;12.114;2023-04-01T07:09:55;99832.84;;;5.36;100.00
61472;BME280;47337;54.068;12.114;2023-04-01T07:12:36;99830.28;;;5.37;100.00
61472;BME280;47337;54.068;12.114;2023-04-01T07:15:25;99829.28;;;5.29;100.00
61472;BME280;47337;54.068;12.114;2023-04-01T07:18:02;99826.78;;;5.37;100.00
61472;BME280;47337;54.068;12.114;2023-04-01T07:20:31;99838.09;;;5.40;100.00
61472;BME280;47337;54.068;12.114;2023-04-01T07:23:03;99837.91;;;5.27;100.00
61472;BME280;47337;54.068;12.114;2023-04-01T07:25:36;99843.13;;;5.30;100.00
61472;BME280;47337;54.068;12.114;2023-04-01T07:28:14;99835.44;;;5.36;100.00
61472;BME280;47337;54.068;12.114;2023-04-01T07:31:12;99850.94;;;5.28;100.00
61472;BME280;47337;54.068;12.114;2023-04-01T07:36:36;99848.50;;;5.40;100.00
61472;BME280;47337;54.068;12.114;2023-04-01T07:41:58;99861.41;;;5.33;100.00
61472;BME280;47337;54.068;12.114;2023-04-01T07:47:22;99863.31;;;5.43;100.00
61472;BME280;47337;54.068;12.114;2023-04-01T07:50:23;99875.28;;;5.32;100.00
61472;BME280;47337;54.068;12.114;2023-04-01T07:53:16;99884.75;;;5.30;100.00
61472;BME280;47337;54.068;12.114;2023-04-01T08:04:27;99901.09;;;5.21;100.00
61472;BME280;47337;54.068;12.114;2023-04-01T08:07:05;99900.28;;;5.24;100.00
61472;BME280;47337;54.068;12.114;2023-04-01T08:09:43;99912.59;;;5.34;100.00
61472;BME280;47337;54.068;12.114;2023-04-01T08:20:28;99921.81;;;5.15;100.00
61472;BME280;47337;54.068;12.114;2023-04-01T08:23:03;99928.00;;;5.22;100.00
61472;BME280;47337;54.068;12.114;2023-04-01T08:25:33;99930.50;;;5.15;100.00
61472;BME280;47337;54.068;12.114;2023-04-01T08:28:24;99942.69;;;5.20;100.00
61472;BME280;47337;54.068;12.114;2023-04-01T08:30:58;99945.50;;;5.32;100.00
61472;BME280;47337;54.068;12.114;2023-04-01T08:33:30;99949.00;;;5.32;100.00
61472;BME280;47337;54.068;12.114;2023-04-01T08:38:42;99951.19;;;5.11;100.00
61472;BME280;47337;54.068;12.114;2023-04-01T08:41:12;99961.84;;;5.23;100.00
61472;BME280;47337;54.068;12.114;2023-04-01T08:43:54;99974.78;;;5.19;100.00
61472;BME280;47337;54.068;12.114;2023-04-01T08:57:53;99973.81;;;5.13;100.00
61472;BME280;47337;54.068;12.114;2023-04-01T09:05:55;99971.94;;;5.06;100.00
61472;BME280;47337;54.068;12.114;2023-04-01T09:28:20;99983.69;;;5.33;100.00
61472;BME280;47337;54.068;12.114;2023-04-01T09:31:31;99982.97;;;5.40;100.00
61472;BME280;47337;54.068;12.114;2023-04-01T09:47:50;99987.47;;;5.48;100.00
61472;BME280;47337;54.068;12.114;2023-04-01T10:02:02;99994.16;;;5.34;100.00
61472;BME280;47337;54.068;12.114;2023-04-01T10:08:08;99993.72;;;5.58;100.00
61472;BME280;47337;54.068;12.114;2023-04-01T10:22:10;99992.00;;;5.59;100.00
61472;BME280;47337;54.068;12.114;2023-04-01T10:50:04;100005.47;;;5.86;100.00
61472;BME280;47337;54.068;12.114;2023-04-01T10:52:43;99988.75;;;5.72;100.00
61472;BME280;47337;54.068;12.114;2023-04-01T10:55:54;99992.91;;;5.62;100.00
61472;BME280;47337;54.068;12.114;2023-04-01T11:15:39;100006.44;;;5.43;100.00
61472;BME280;47337;54.068;12.114;2023-04-01T11:29:57;100010.59;;;5.80;100.00
61472;BME280;47337;54.068;12.114;2023-04-01T11:38:19;100032.75;;;5.58;100.00
61472;BME280;47337;54.068;12.114;2023-04-01T11:40:59;100019.13;;;5.73;100.00
61472;BME280;47337;54.068;12.114;2023-04-01T11:44:03;100025.06;;;5.64;100.00
61472;BME280;47337;54.068;12.114;2023-04-01T11:47:00;100029.63;;;5.77;100.00
61472;BME280;47337;54.068;12.114;2023-04-01T12:11:12;100042.34;;;5.62;100.00
61472;BME280;47337;54.068;12.114;2023-04-01T12:14:02;100050.81;;;5.49;100.00
61472;BME280;47337;54.068;12.114;2023-04-01T12:17:03;100040.34;;;5.46;100.00
61472;BME280;47337;54.068;12.114;2023-04-01T12:19:48;100042.16;;;5.50;100.00
61472;BME280;47337;54.068;12.114;2023-04-01T12:33:26;100047.41;;;5.53;100.00
61472;BME280;47337;54.068;12.114;2023-04-01T12:38:50;100042.16;;;5.51;100.00
61472;BME280;47337;54.068;12.114;2023-04-01T12:44:31;100050.09;;;5.58;100.00
61472;BME280;47337;54.068;12.114;2023-04-01T12:52:18;100073.16;;;5.38;100.00
61472;BME280;47337;54.068;12.114;2023-04-01T13:03:21;100068.59;;;5.26;100.00
61472;BME280;47337;54.068;12.114;2023-04-01T13:17:22;100099.09;;;5.35;100.00
61472;BME280;47337;54.068;12.114;2023-04-01T13:20:11;100098.34;;;5.39;100.00
61472;BME280;47337;54.068;12.114;2023-04-01T13:25:14;100090.53;;;5.39;100.00
61472;BME280;47337;54.068;12.114;2023-04-01T13:27:49;100098.16;;;5.31;100.00
61472;BME280;47337;54.068;12.114;2023-04-01T13:43:50;100124.38;;;5.42;100.00
61472;BME280;47337;54.068;12.114;2023-04-01T13:46:39;100106.19;;;5.42;100.00
61472;BME280;47337;54.068;12.114;2023-04-01T13:58:20;100111.00;;;5.24;100.00
61472;BME280;47337;54.068;12.114;2023-04-01T14:01:25;100109.41;;;5.29;100.00
61472;BME280;47337;54.068;12.114;2023-04-01T14:20:22;100141.91;;;5.08;100.00
61472;BME280;47337;54.068;12.114;2023-04-01T14:23:13;100147.16;;;5.11;100.00
61472;BME280;47337;54.068;12.114;2023-04-01T14:25:54;100154.94;;;5.08;100.00
61472;BME280;47337;54.068;12.114;2023-04-01T14:28:43;100144.44;;;5.05;100.00
61472;BME280;47337;54.068;12.114;2023-04-01T14:50:50;100130.25;;;5.32;100.00
61472;BME280;47337;54.068;12.114;2023-04-01T14:58:41;100129.44;;;5.34;100.00
61472;BME280;47337;54.068;12.114;2023-04-01T15:07:32;100129.53;;;4.98;100.00
61472;BME280;47337;54.068;12.114;2023-04-01T15:18:08;100162.63;;;5.04;100.00
61472;BME280;47337;54.068;12.114;2023-04-01T15:23:21;100157.44;;;5.05;100.00
61472;BME280;47337;54.068;12.114;2023-04-01T15:39:44;100193.38;;;4.84;100.00
61472;BME280;47337;54.068;12.114;2023-04-01T15:42:34;100211.66;;;4.87;100.00
61472;BME280;47337;54.068;12.114;2023-04-01T15:45:11;100200.28;;;4.84;100.00
61472;BME280;47337;54.068;12.114;2023-04-01T15:53:23;100203.38;;;4.69;100.00
61472;BME280;47337;54.068;12.114;2023-04-01T15:56:10;100216.50;;;4.73;100.00
61472;BME280;47337;54.068;12.114;2023-04-01T15:59:01;100210.72;;;4.85;100.00
61472;BME280;47337;54.068;12.114;2023-04-01T16:01:47;100213.78;;;4.69;100.00
61472;BME280;47337;54.068;12.114;2023-04-01T16:04:42;100232.50;;;4.90;100.00
61472;BME280;47337;54.068;12.114;2023-04-01T16:21:21;100180.59;;;4.59;100.00
61472;BME280;47337;54.068;12.114;2023-04-01T16:31:38;100210.94;;;4.60;100.00
61472;BME280;47337;54.068;12.114;2023-04-01T16:34:16;100230.75;;;4.55;100.00
61472;BME280;47337;54.068;12.114;2023-04-01T16:47:33;100276.38;;;4.76;100.00
61472;BME280;47337;54.068;12.114;2023-04-01T16:53:02;100254.56;;;4.71;100.00
61472;BME280;47337;54.068;12.114;2023-04-01T16:58:35;100241.31;;;4.61;100.00
61472;BME280;47337;54.068;12.114;2023-04-01T17:01:13;100222.19;;;4.59;100.00
61472;BME280;47337;54.068;12.114;2023-04-01T17:03:45;100203.69;;;4.47;100.00
61472;BME280;47337;54.068;12.114;2023-04-01T17:11:31;100193.75;;;4.30;100.00
61472;BME280;47337;54.068;12.114;2023-04-01T17:41:09;100247.91;;;4.17;99.21
61472;BME280;47337;54.068;12.114;2023-04-01T17:44:31;100251.16;;;4.08;98.99
61472;BME280;47337;54.068;12.114;2023-04-01T17:53:14;100302.16;;;4.06;100.00
61472;BME280;47337;54.068;12.114;2023-04-01T17:58:19;100340.94;;;4.00;100.00
61472;BME280;47337;54.068;12.114;2023-04-01T18:24:06;100368.09;;;3.54;99.62
61472;BME280;47337;54.068;12.114;2023-04-01T18:26:41;100357.69;;;3.54;99.30
61472;BME280;47337;54.068;12.114;2023-04-01T18:31:46;100377.91;;;3.64;99.33
61472;BME280;47337;54.068;12.114;2023-04-01T18:39:52;100416.66;;;3.58;100.00
61472;BME280;47337;54.068;12.114;2023-04-01T18:51:19;100472.50;;;3.47;100.00
61472;BME280;47337;54.068;12.114;2023-04-01T18:56:35;100494.19;;;3.49;100.00
61472;BME280;47337;54.068;12.114;2023-04-01T19:04:43;100509.56;;;3.19;100.00
61472;BME280;47337;54.068;12.114;2023-04-01T19:12:54;100524.84;;;3.12;100.00
61472;BME280;47337;54.068;12.114;2023-04-01T19:27:48;100536.03;;;2.87;100.00
61472;BME280;47337;54.068;12.114;2023-04-01T19:32:58;100557.56;;;2.84;100.00
61472;BME280;47337;54.068;12.114;2023-04-01T19:38:38;100592.63;;;2.75;100.00
61472;BME280;47337;54.068;12.114;2023-04-01T19:43:47;100614.72;;;2.67;100.00
61472;BME280;47337;54.068;12.114;2023-04-01T19:46:32;100625.97;;;2.67;100.00
61472;BME280;47337;54.068;12.114;2023-04-01T19:52:17;100656.44;;;2.73;100.00
61472;BME280;47337;54.068;12.114;2023-04-01T19:55:03;100648.59;;;2.71;100.00
61472;BME280;47337;54.068;12.114;2023-04-01T19:58:00;100648.84;;;2.77;100.00
61472;BME280;47337;54.068;12.114;2023-04-01T20:00:42;100652.03;;;2.70;100.00
61472;BME280;47337;54.068;12.114;2023-04-01T20:06:05;100650.25;;;2.69;100.00
61472;BME280;47337;54.068;12.114;2023-04-01T20:08:57;100659.88;;;2.51;100.00
61472;BME280;47337;54.068;12.114;2023-04-01T20:11:55;100660.00;;;2.54;100.00
61472;BME280;47337;54.068;12.114;2023-04-01T20:17:07;100654.78;;;2.52;100.00
61472;BME280;47337;54.068;12.114;2023-04-01T20:19:43;100667.97;;;2.38;100.00
61472;BME280;47337;54.068;12.114;2023-04-01T20:24:51;100673.28;;;2.41;100.00
61472;BME280;47337;54.068;12.114;2023-04-01T20:27:23;100673.78;;;2.32;100.00
61472;BME280;47337;54.068;12.114;2023-04-01T20:40:54;100687.72;;;2.36;100.00
61472;BME280;47337;54.068;12.114;2023-04-01T20:43:33;100697.09;;;2.32;100.00
61472;BME280;47337;54.068;12.114;2023-04-01T20:51:47;100691.19;;;2.15;100.00
61472;BME280;47337;54.068;12.114;2023-04-01T21:03:14;100732.38;;;2.09;100.00
61472;BME280;47337;54.068;12.114;2023-04-01T21:06:03;100728.69;;;2.04;100.00
61472;BME280;47337;54.068;12.114;2023-04-01T21:17:28;100752.78;;;2.03;100.00
61472;BME280;47337;54.068;12.114;2023-04-01T21:23:23;100762.72;;;2.13;100.00
61472;BME280;47337;54.068;12.114;2023-04-01T21:26:39;100765.06;;;2.07;100.00
61472;BME280;47337;54.068;12.114;2023-04-01T21:29:24;100773.44;;;2.02;100.00
61472;BME280;47337;54.068;12.114;2023-04-01T21:32:05;100771.59;;;1.99;100.00
61472;BME280;47337;54.068;12.114;2023-04-01T21:34:48;100789.44;;;1.93;100.00
61472;BME280;47337;54.068;12.114;2023-04-01T21:43:36;100816.34;;;1.77;100.00
61472;BME280;47337;54.068;12.114;2023-04-01T21:49:13;100841.19;;;1.93;100.00
61472;BME280;47337;54.068;12.114;2023-04-01T22:05:05;100873.84;;;1.90;100.00
61472;BME280;47337;54.068;12.114;2023-04-01T22:13:10;100885.91;;;1.89;100.00
61472;BME280;47337;54.068;12.114;2023-04-01T22:18:30;100897.94;;;1.89;100.00
61472;BME280;47337;54.068;12.114;2023-04-01T22:23:57;100900.53;;;1.89;100.00
61472;BME280;47337;54.068;12.114;2023-04-01T22:29:23;100914.34;;;1.89;100.00
61472;BME280;47337;54.068;12.114;2023-04-01T22:32:02;100921.75;;;1.99;100.00
61472;BME280;47337;54.068;12.114;2023-04-01T22:40:44;100931.97;;;2.15;100.00
61472;BME280;47337;54.068;12.114;2023-04-01T22:43:13;100935.69;;;2.20;100.00
61472;BME280;47337;54.068;12.114;2023-04-01T22:48:35;100943.31;;;2.17;100.00
61472;BME280;47337;54.068;12.114;2023-04-01T22:54:15;100953.94;;;2.24;100.00
61472;BME280;47337;54.068;12.114;2023-04-01T22:57:00;100964.13;;;2.38;100.00
61472;BME280;47337;54.068;12.114;2023-04-01T23:02:02;100963.88;;;2.51;100.00
61472;BME280;47337;54.068;12.114;2023-04-01T23:04:34;100962.03;;;2.49;100.00
61472;BME280;47337;54.068;12.114;2023-04-01T23:07:19;100960.94;;;2.63;100.00
61472;BME280;47337;54.068;12.114;2023-04-01T23:09:50;100960.06;;;2.63;100.00
61472;BME280;47337;54.068;12.114;2023-04-01T23:12:19;100951.13;;;2.75;100.00
61472;BME280;47337;54.068;12.114;2023-04-01T23:14:48;100944.50;;;2.82;100.00
61472;BME280;47337;54.068;12.114;2023-04-01T23:17:23;100923.78;;;2.82;100.00
61472;BME280;47337;54.068;12.114;2023-04-01T23:31:37;100916.38;;;2.91;100.00
61472;BME280;47337;54.068;12.114;2023-04-01T23:36:49;100910.47;;;2.93;100.00
61472;BME280;47337;54.068;12.114;2023-04-01T23:42:03;100916.94;;;2.84;100.00
61472;BME280;47337;54.068;12.114;2023-04-01T23:44:32;100924.66;;;2.82;100.00
61472;BME280;47337;54.068;12.114;2023-04-01T23:46:59;100929.28;;;2.89;100.00
61472;BME280;47337;54.068;12.114;2023-04-01T23:49:48;100928.78;;;2.98;100.00
61472;BME280;47337;54.068;12.114;2023-04-01T23:52:24;100934.47;;;2.89;100.00
61472;BME280;47337;54.068;12.114;2023-04-01T23:55:13;100926.41;;;3.03;100.00
61472;BME280;47337;54.068;12.114;2023-04-01T23:57:39;100929.94;;;3.05;100.00
